createdAt,value
2018-08-13T00:00:08.373Z,58.26
2018-08-13T00:02:36.394Z,57.92
2018-08-13T00:05:05.246Z,57.72
2018-08-13T00:07:33.277Z,57.86
2018-08-13T00:10:04.792Z,58.02
2018-08-13T00:12:32.992Z,58.39
2018-08-13T00:15:01.009Z,58.54
2018-08-13T00:17:29.064Z,59.16
2018-08-13T00:19:57.073Z,58.09
2018-08-13T00:22:25.102Z,58.42
2018-08-13T00:24:53.136Z,57.78
2018-08-13T00:27:21.170Z,57.75
2018-08-13T00:29:49.218Z,58.43
2018-08-13T00:32:17.253Z,58.38
2018-08-13T00:34:45.294Z,57.94
2018-08-13T00:37:13.377Z,57.98
2018-08-13T00:39:41.462Z,58.03
2018-08-13T00:42:09.495Z,57.79
2018-08-13T00:44:37.520Z,57.15
2018-08-13T00:47:05.562Z,57.26
2018-08-13T00:49:33.610Z,57.05
2018-08-13T00:52:01.642Z,57.43
2018-08-13T00:54:29.659Z,57.07
2018-08-13T00:56:57.689Z,57.03
2018-08-13T00:59:25.716Z,57.31
2018-08-13T01:01:53.748Z,57.62
2018-08-13T01:04:21.769Z,57.60
2018-08-13T01:06:49.802Z,57.96
2018-08-13T01:09:17.825Z,58.06
2018-08-13T01:11:52.498Z,58.42
2018-08-13T01:14:20.524Z,57.91
2018-08-13T01:16:48.708Z,57.60
2018-08-13T01:19:16.744Z,57.70
2018-08-13T01:21:44.795Z,57.60
2018-08-13T01:24:12.970Z,57.80
2018-08-13T01:26:40.996Z,56.60
2018-08-13T01:29:09.016Z,56.91
2018-08-13T01:31:37.206Z,57.30
2018-08-13T01:34:05.234Z,56.67
2018-08-13T01:36:33.298Z,56.03
2018-08-13T01:39:01.331Z,55.13
2018-08-13T01:41:29.365Z,54.03
2018-08-13T01:43:57.393Z,55.23
2018-08-13T01:46:25.432Z,55.12
2018-08-13T01:48:53.448Z,55.43
2018-08-13T01:51:21.483Z,56.06
2018-08-13T01:53:49.528Z,56.46
2018-08-13T01:56:17.552Z,56.33
2018-08-13T01:58:45.590Z,57.27
2018-08-13T02:01:13.615Z,57.83
2018-08-13T02:03:41.818Z,57.22
2018-08-13T02:06:09.868Z,57.19
2018-08-13T02:08:37.904Z,58.10
2018-08-13T02:11:05.940Z,58.24
2018-08-13T02:13:33.984Z,58.00
2018-08-13T02:16:02.024Z,57.50
2018-08-13T02:18:30.053Z,56.94
2018-08-13T02:20:58.097Z,56.43
2018-08-13T02:23:26.117Z,56.46
2018-08-13T02:25:54.242Z,57.17
2018-08-13T02:28:22.333Z,57.42
2018-08-13T02:30:50.366Z,56.80
2018-08-13T02:33:18.405Z,56.11
2018-08-13T02:35:46.420Z,56.34
2018-08-13T02:38:14.656Z,56.21
2018-08-13T02:40:42.688Z,56.48
2018-08-13T02:43:10.721Z,56.96
2018-08-13T02:45:38.774Z,56.68
2018-08-13T02:48:06.856Z,56.50
2018-08-13T02:50:34.921Z,55.79
2018-08-13T02:53:02.976Z,55.89
2018-08-13T02:55:30.977Z,54.89
2018-08-13T02:57:59.076Z,53.83
2018-08-13T03:00:27.034Z,55.26
2018-08-13T03:02:55.089Z,55.53
2018-08-13T03:05:23.116Z,57.01
2018-08-13T03:07:51.168Z,56.83
2018-08-13T03:10:19.202Z,57.03
2018-08-13T03:12:47.371Z,56.94
2018-08-13T03:15:15.494Z,56.30
2018-08-13T03:17:43.586Z,54.97
2018-08-13T03:20:11.666Z,54.40
2018-08-13T03:22:39.689Z,55.41
2018-08-13T03:25:09.695Z,55.77
2018-08-13T03:27:37.713Z,55.32
2018-08-13T03:30:08.287Z,56.04
2018-08-13T03:32:36.337Z,55.86
2018-08-13T03:35:05.304Z,55.83
2018-08-13T03:37:33.322Z,55.62
2018-08-13T03:40:01.321Z,54.53
2018-08-13T03:42:29.366Z,54.19
2018-08-13T03:44:57.381Z,54.54
2018-08-13T03:47:25.414Z,53.92
2018-08-13T03:49:53.441Z,53.31
2018-08-13T03:52:21.488Z,53.74
2018-08-13T03:54:49.513Z,53.62
2018-08-13T03:57:17.548Z,52.21
2018-08-13T03:59:45.576Z,52.57
2018-08-13T04:02:13.769Z,51.88
2018-08-13T04:04:41.785Z,51.96
2018-08-13T04:07:09.820Z,51.99
2018-08-13T04:09:37.868Z,52.49
2018-08-13T04:12:05.949Z,52.16
2018-08-13T04:14:33.975Z,51.50
2018-08-13T04:17:02.629Z,51.56
2018-08-13T04:19:32.020Z,50.77
2018-08-13T04:22:00.349Z,52.27
2018-08-13T04:24:28.378Z,52.77
2018-08-13T04:26:56.422Z,52.73
2018-08-13T04:29:24.651Z,52.89
2018-08-13T04:31:52.680Z,53.80
2018-08-13T04:34:20.797Z,54.23
2018-08-13T04:36:48.880Z,55.42
2018-08-13T04:39:16.916Z,56.03
2018-08-13T04:41:44.952Z,55.91
2018-08-13T04:44:13.354Z,56.01
2018-08-13T04:46:41.402Z,55.40
2018-08-13T04:49:09.592Z,55.42
2018-08-13T04:51:37.614Z,55.60
2018-08-13T04:54:05.845Z,56.39
2018-08-13T04:56:34.021Z,57.03
2018-08-13T04:59:02.152Z,56.88
2018-08-13T05:01:36.984Z,56.64
2018-08-13T05:04:05.028Z,57.05
2018-08-13T05:06:33.064Z,57.38
2018-08-13T05:09:01.109Z,56.63
2018-08-13T05:11:29.137Z,54.61
2018-08-13T05:13:57.653Z,53.47
2018-08-13T05:16:25.669Z,53.63
2018-08-13T05:18:53.695Z,53.41
2018-08-13T05:21:21.774Z,53.92
2018-08-13T05:23:49.761Z,53.53
2018-08-13T05:26:17.796Z,53.84
2018-08-13T05:28:45.817Z,53.68
2018-08-13T05:31:13.848Z,52.95
2018-08-13T05:33:41.884Z,51.91
2018-08-13T05:36:10.143Z,51.34
2018-08-13T05:38:38.124Z,51.09
2018-08-13T05:41:06.157Z,51.00
2018-08-13T05:43:34.211Z,51.22
2018-08-13T05:46:02.225Z,51.20
2018-08-13T05:48:30.313Z,51.50
2018-08-13T05:50:58.361Z,51.31
2018-08-13T05:53:26.385Z,52.11
2018-08-13T05:55:54.440Z,51.86
2018-08-13T05:58:22.462Z,53.26
2018-08-13T06:00:50.512Z,53.47
2018-08-13T06:03:18.856Z,53.84
2018-08-13T06:05:46.898Z,54.15
2018-08-13T06:08:14.944Z,54.90
2018-08-13T06:10:42.988Z,55.99
2018-08-13T06:13:11.009Z,55.32
2018-08-13T06:15:39.048Z,56.96
2018-08-13T06:18:07.111Z,57.26
2018-08-13T06:20:35.385Z,57.02
2018-08-13T06:23:03.405Z,58.06
2018-08-13T06:25:31.516Z,58.22
2018-08-13T06:27:59.545Z,58.90
2018-08-13T06:30:27.954Z,58.83
2018-08-13T06:32:55.968Z,58.58
2018-08-13T06:35:30.623Z,59.81
2018-08-13T06:37:58.657Z,59.41
2018-08-13T06:40:26.672Z,60.63
2018-08-13T06:42:54.709Z,59.25
2018-08-13T06:45:22.736Z,60.86
2018-08-13T06:47:50.774Z,60.70
2018-08-13T06:50:26.044Z,60.36
2018-08-13T06:52:54.076Z,60.25
2018-08-13T06:55:22.136Z,59.92
2018-08-13T06:57:50.179Z,60.06
2018-08-13T07:00:18.629Z,60.55
2018-08-13T07:02:53.068Z,59.87
2018-08-13T07:05:21.116Z,59.94
2018-08-13T07:07:49.184Z,60.88
2018-08-13T07:10:17.240Z,61.00
2018-08-13T07:12:46.415Z,61.39
2018-08-13T07:15:16.145Z,62.03
2018-08-13T07:17:44.197Z,61.48
2018-08-13T07:20:13.932Z,61.70
2018-08-13T07:22:42.200Z,62.74
2018-08-13T07:25:10.342Z,62.24
2018-08-13T07:27:39.007Z,62.31
2018-08-13T07:30:12.557Z,63.39
2018-08-13T07:32:40.940Z,63.81
2018-08-13T07:35:09.330Z,64.32
2018-08-13T07:37:37.398Z,65.01
2018-08-13T07:40:07.132Z,64.70
2018-08-13T07:42:35.153Z,64.71
2018-08-13T07:45:03.372Z,64.41
2018-08-13T07:47:31.401Z,64.57
2018-08-13T07:49:59.434Z,65.37
2018-08-13T07:52:27.501Z,65.37
2018-08-13T07:54:55.830Z,65.57
2018-08-13T07:57:23.881Z,65.87
2018-08-13T07:59:52.301Z,65.42
2018-08-13T08:02:20.351Z,65.45
2018-08-13T08:04:48.374Z,65.55
2018-08-13T08:07:16.580Z,65.74
2018-08-13T08:09:44.614Z,66.28
2018-08-13T08:12:12.632Z,66.25
2018-08-13T08:14:40.763Z,65.91
2018-08-13T08:17:09.096Z,66.36
2018-08-13T08:19:37.138Z,66.26
2018-08-13T08:22:05.184Z,65.83
2018-08-13T08:24:33.621Z,66.20
2018-08-13T08:27:01.814Z,66.01
2018-08-13T08:29:29.837Z,65.62
2018-08-13T08:31:57.867Z,65.17
2018-08-13T08:34:25.903Z,64.69
2018-08-13T08:36:53.942Z,64.52
2018-08-13T08:39:21.973Z,64.54
2018-08-13T08:41:50.145Z,64.48
2018-08-13T08:44:18.498Z,64.33
2018-08-13T08:46:46.525Z,63.91
2018-08-13T08:49:14.553Z,64.65
2018-08-13T08:51:42.604Z,64.60
2018-08-13T08:54:11.281Z,63.72
2018-08-13T08:56:39.318Z,63.25
2018-08-13T08:59:08.697Z,63.42
2018-08-13T09:01:36.817Z,63.08
2018-08-13T09:04:05.381Z,62.85
2018-08-13T09:06:33.413Z,61.36
2018-08-13T09:09:01.441Z,62.34
2018-08-13T09:11:29.457Z,61.94
2018-08-13T09:13:57.528Z,61.96
2018-08-13T09:16:25.549Z,61.25
2018-08-13T09:19:04.989Z,61.28
2018-08-13T09:21:34.497Z,61.10
2018-08-13T09:24:14.492Z,61.13
2018-08-13T09:26:53.820Z,60.41
2018-08-13T09:29:33.723Z,60.57
2018-08-13T09:32:28.271Z,59.49
2018-08-13T09:35:17.028Z,58.86
2018-08-13T09:37:45.253Z,58.59
2018-08-13T09:40:13.297Z,58.09
2018-08-13T09:42:41.349Z,58.33
2018-08-13T09:45:09.424Z,58.14
2018-08-13T09:47:38.313Z,57.69
2018-08-13T09:50:09.545Z,56.82
2018-08-13T09:52:37.590Z,56.71
2018-08-13T09:55:05.786Z,57.15
2018-08-13T09:57:33.832Z,57.22
2018-08-13T10:00:02.030Z,57.33
2018-08-13T10:02:30.057Z,56.90
2018-08-13T10:04:58.081Z,57.50
2018-08-13T10:07:26.244Z,57.02
2018-08-13T10:09:54.488Z,58.25
2018-08-13T10:12:22.518Z,58.19
2018-08-13T10:14:50.551Z,57.47
2018-08-13T10:17:18.578Z,57.89
2018-08-13T10:19:47.181Z,57.79
2018-08-13T10:22:15.224Z,58.32
2018-08-13T10:24:43.248Z,59.29
2018-08-13T10:27:11.309Z,59.12
2018-08-13T10:29:39.467Z,60.40
2018-08-13T10:32:07.627Z,60.76
2018-08-13T10:34:35.662Z,61.14
2018-08-13T10:37:03.697Z,60.96
2018-08-13T10:39:31.733Z,59.60
2018-08-13T10:41:59.848Z,59.69
2018-08-13T10:44:27.916Z,59.48
2018-08-13T10:46:55.952Z,59.52
2018-08-13T10:49:24.370Z,57.95
2018-08-13T10:51:52.393Z,57.73
2018-08-13T10:54:26.660Z,56.66
2018-08-13T10:56:54.717Z,57.70
2018-08-13T10:59:22.760Z,57.45
2018-08-13T11:01:50.868Z,57.74
2018-08-13T11:04:19.217Z,57.36
2018-08-13T11:06:47.250Z,56.14
2018-08-13T11:09:15.306Z,56.22
2018-08-13T11:11:43.469Z,54.13
2018-08-13T11:14:11.533Z,53.91
2018-08-13T11:16:39.558Z,54.74
2018-08-13T11:19:07.722Z,54.57
2018-08-13T11:21:35.783Z,55.61
2018-08-13T11:24:05.016Z,54.58
2018-08-13T11:26:33.064Z,53.27
2018-08-13T11:29:01.188Z,53.39
2018-08-13T11:31:29.546Z,53.66
2018-08-13T11:33:57.593Z,53.39
2018-08-13T11:36:25.634Z,52.96
2018-08-13T11:38:53.681Z,53.08
2018-08-13T11:41:21.842Z,54.05
2018-08-13T11:43:49.876Z,53.49
2018-08-13T11:46:18.111Z,53.15
2018-08-13T11:48:52.396Z,53.09
2018-08-13T11:51:20.466Z,53.00
2018-08-13T11:53:48.503Z,52.54
2018-08-13T11:56:16.608Z,52.96
2018-08-13T11:58:44.595Z,52.29
2018-08-13T12:01:12.668Z,52.32
2018-08-13T12:03:40.861Z,50.72
2018-08-13T12:06:08.894Z,51.34
2018-08-13T12:08:37.365Z,51.17
2018-08-13T12:11:05.443Z,50.27
2018-08-13T12:13:33.489Z,49.94
2018-08-13T12:16:01.669Z,49.15
2018-08-13T12:18:29.845Z,49.32
2018-08-13T12:20:58.346Z,50.66
2018-08-13T12:23:26.386Z,51.09
2018-08-13T12:25:54.427Z,51.25
2018-08-13T12:28:22.483Z,50.99
2018-08-13T12:30:50.515Z,52.00
2018-08-13T12:33:18.549Z,52.57
2018-08-13T12:35:46.578Z,51.85
2018-08-13T12:38:14.625Z,50.18
2018-08-13T12:40:42.660Z,50.09
2018-08-13T12:43:10.996Z,50.09
2018-08-13T12:45:39.101Z,51.21
2018-08-13T12:48:07.307Z,50.28
2018-08-13T12:50:35.337Z,50.96
2018-08-13T12:53:03.379Z,51.26
2018-08-13T12:55:31.684Z,51.90
2018-08-13T12:57:59.720Z,52.35
2018-08-13T13:00:27.761Z,51.57
2018-08-13T13:02:55.883Z,52.73
2018-08-13T13:05:23.920Z,52.91
2018-08-13T13:07:52.012Z,52.68
2018-08-13T13:10:20.060Z,53.56
2018-08-13T13:12:48.105Z,52.98
2018-08-13T13:15:17.732Z,52.91
2018-08-13T13:17:45.989Z,53.10
2018-08-13T13:20:16.121Z,52.79
2018-08-13T13:22:45.128Z,53.32
2018-08-13T13:25:13.165Z,52.67
2018-08-13T13:27:41.188Z,53.57
2018-08-13T13:30:11.386Z,53.75
2018-08-13T13:32:39.432Z,55.04
2018-08-13T13:35:08.621Z,54.43
2018-08-13T13:37:37.129Z,55.11
2018-08-13T13:40:07.997Z,58.07
2018-08-13T13:42:36.317Z,60.19
2018-08-13T13:45:05.324Z,60.72
2018-08-13T13:47:33.359Z,61.78
2018-08-13T13:50:01.411Z,61.92
2018-08-13T13:52:29.430Z,62.93
2018-08-13T13:54:57.474Z,63.56
2018-08-13T13:57:25.559Z,64.36
2018-08-13T13:59:53.579Z,64.00
2018-08-13T14:02:21.612Z,64.89
2018-08-13T14:04:49.637Z,65.14
2018-08-13T14:07:17.662Z,65.34
2018-08-13T14:09:45.727Z,66.73
2018-08-13T14:12:18.498Z,66.18
2018-08-13T14:14:46.762Z,66.67
2018-08-13T14:17:14.865Z,66.10
2018-08-13T14:19:43.197Z,66.23
2018-08-13T14:22:11.217Z,65.86
2018-08-13T14:24:39.384Z,65.23
2018-08-13T14:27:07.574Z,65.55
2018-08-13T14:29:35.599Z,66.38
2018-08-13T14:32:04.929Z,65.49
2018-08-13T14:34:33.038Z,65.72
2018-08-13T14:37:00.996Z,66.09
2018-08-13T14:39:29.033Z,66.22
2018-08-13T14:41:57.073Z,65.66
2018-08-13T14:44:25.093Z,65.13
2018-08-13T14:46:53.123Z,66.14
2018-08-13T14:49:21.172Z,66.25
2018-08-13T14:51:49.197Z,65.36
2018-08-13T14:54:17.230Z,65.22
2018-08-13T14:56:45.353Z,65.57
2018-08-13T14:59:13.454Z,65.51
2018-08-13T15:01:41.491Z,64.39
2018-08-13T15:04:09.525Z,65.08
2018-08-13T15:06:37.712Z,64.36
2018-08-13T15:09:08.354Z,63.75
2018-08-13T15:11:39.225Z,63.70
2018-08-13T15:14:08.340Z,63.92
2018-08-13T15:16:36.413Z,63.44
2018-08-13T15:19:05.368Z,63.60
2018-08-13T15:21:33.351Z,63.83
2018-08-13T15:24:01.380Z,64.95
2018-08-13T15:26:29.408Z,65.81
2018-08-13T15:28:57.441Z,66.25
2018-08-13T15:31:25.538Z,66.84
2018-08-13T15:33:53.629Z,66.19
2018-08-13T15:36:21.849Z,67.18
2018-08-13T15:38:49.948Z,67.68
2018-08-13T15:41:18.168Z,67.77
2018-08-13T15:43:46.657Z,68.61
2018-08-13T15:46:14.701Z,67.11
2018-08-13T15:48:42.726Z,66.86
2018-08-13T15:51:10.776Z,66.64
2018-08-13T15:53:38.857Z,66.64
2018-08-13T15:56:06.924Z,66.90
2018-08-13T15:58:34.977Z,66.13
2018-08-13T16:01:03.022Z,65.88
2018-08-13T16:03:31.060Z,66.42
2018-08-13T16:05:59.281Z,66.24
2018-08-13T16:08:27.345Z,65.99
2018-08-13T16:10:55.381Z,65.94
2018-08-13T16:13:23.437Z,66.78
2018-08-13T16:15:51.529Z,66.48
2018-08-13T16:18:19.523Z,65.85
2018-08-13T16:20:47.558Z,66.87
2018-08-13T16:23:15.628Z,66.68
2018-08-13T16:25:44.470Z,66.48
2018-08-13T16:28:12.503Z,66.31
2018-08-13T16:30:40.567Z,67.43
2018-08-13T16:33:08.619Z,66.40
2018-08-13T16:35:36.657Z,67.36
2018-08-13T16:38:05.454Z,66.95
2018-08-13T16:40:33.521Z,66.56
2018-08-13T16:43:01.551Z,67.41
2018-08-13T16:45:29.631Z,66.65
2018-08-13T16:47:57.758Z,67.19
2018-08-13T16:50:28.296Z,67.80
2018-08-13T16:52:56.645Z,68.78
2018-08-13T16:55:25.214Z,68.68
2018-08-13T16:57:53.294Z,68.68
2018-08-13T17:00:26.001Z,68.93
2018-08-13T17:02:54.253Z,67.99
2018-08-13T17:05:22.518Z,68.24
2018-08-13T17:07:50.673Z,69.07
2018-08-13T17:10:22.491Z,68.82
2018-08-13T17:12:51.225Z,69.08
2018-08-13T17:15:19.422Z,69.16
2018-08-13T17:17:49.084Z,68.93
2018-08-13T17:20:19.196Z,69.28
2018-08-13T17:22:47.235Z,69.67
2018-08-13T17:25:15.866Z,69.77
2018-08-13T17:27:44.295Z,70.60
2018-08-13T17:30:21.578Z,70.40
2018-08-13T17:32:50.668Z,70.37
2018-08-13T17:35:20.592Z,70.75
2018-08-13T17:37:49.494Z,70.82
2018-08-13T17:40:20.240Z,70.65
2018-08-13T17:42:48.441Z,70.86
2018-08-13T17:45:16.453Z,69.86
2018-08-13T17:47:44.501Z,71.15
2018-08-13T17:50:14.328Z,70.18
2018-08-13T17:52:43.216Z,70.63
2018-08-13T17:55:11.834Z,70.24
2018-08-13T17:57:40.431Z,70.90
2018-08-13T18:00:15.435Z,71.41
2018-08-13T18:02:44.009Z,71.68
2018-08-13T18:05:14.393Z,71.50
2018-08-13T18:07:42.536Z,71.16
2018-08-13T18:10:14.469Z,71.42
2018-08-13T18:12:42.534Z,71.74
2018-08-13T18:15:13.257Z,71.74
2018-08-13T18:17:41.674Z,72.43
2018-08-13T18:20:11.181Z,72.09
2018-08-13T18:22:39.240Z,72.62
2018-08-13T18:25:09.097Z,73.18
2018-08-13T18:27:37.425Z,73.39
2018-08-13T18:30:08.253Z,73.59
2018-08-13T18:32:36.402Z,73.40
2018-08-13T18:35:05.320Z,73.67
2018-08-13T18:37:33.805Z,74.27
2018-08-13T18:40:01.996Z,73.05
2018-08-13T18:42:30.144Z,73.16
2018-08-13T18:44:58.466Z,73.06
2018-08-13T18:47:26.506Z,73.24
2018-08-13T18:49:54.621Z,73.44
2018-08-13T18:52:22.961Z,73.44
2018-08-13T18:54:51.008Z,73.29
2018-08-13T18:57:19.080Z,72.85
2018-08-13T18:59:47.167Z,73.10
2018-08-13T19:02:15.297Z,73.61
2018-08-13T19:04:43.560Z,73.42
2018-08-13T19:07:11.592Z,73.87
2018-08-13T19:09:39.799Z,73.89
2018-08-13T19:12:07.862Z,73.25
2018-08-13T19:14:35.930Z,74.33
2018-08-13T19:17:04.870Z,73.13
2018-08-13T19:19:33.011Z,73.84
2018-08-13T19:22:01.062Z,73.95
2018-08-13T19:24:29.124Z,74.08
2018-08-13T19:26:57.305Z,74.03
2018-08-13T19:29:25.352Z,73.57
2018-08-13T19:31:53.396Z,74.45
2018-08-13T19:34:21.705Z,73.37
2018-08-13T19:36:49.790Z,73.44
2018-08-13T19:39:17.808Z,73.73
2018-08-13T19:41:46.229Z,73.60
2018-08-13T19:44:14.268Z,73.73
2018-08-13T19:46:42.321Z,73.60
2018-08-13T19:49:10.740Z,73.76
2018-08-13T19:51:38.794Z,74.13
2018-08-13T19:54:06.818Z,74.61
2018-08-13T19:56:34.890Z,74.11
2018-08-13T19:59:03.261Z,74.75
2018-08-13T20:01:31.753Z,75.12
2018-08-13T20:04:00.001Z,74.95
2018-08-13T20:06:28.473Z,75.02
2018-08-13T20:08:56.660Z,75.06
2018-08-13T20:11:24.932Z,74.50
2018-08-13T20:13:53.009Z,74.29
2018-08-13T20:16:21.065Z,74.30
2018-08-13T20:18:49.169Z,73.81
2018-08-13T20:21:17.224Z,73.71
2018-08-13T20:23:45.282Z,73.71
2018-08-13T20:26:13.333Z,74.21
2018-08-13T20:28:41.423Z,73.27
2018-08-13T20:31:09.456Z,73.42
2018-08-13T20:33:37.587Z,73.98
2018-08-13T20:36:05.845Z,74.35
2018-08-13T20:38:33.899Z,73.52
2018-08-13T20:41:01.927Z,73.87
2018-08-13T20:43:30.200Z,73.57
2018-08-13T20:45:58.224Z,73.62
2018-08-13T20:48:26.254Z,73.20
2018-08-13T20:50:54.288Z,73.45
2018-08-13T20:53:22.337Z,74.06
2018-08-13T20:55:50.732Z,74.32
2018-08-13T20:58:18.782Z,73.59
2018-08-13T21:00:47.071Z,73.52
2018-08-13T21:03:15.109Z,73.85
2018-08-13T21:05:43.311Z,73.11
2018-08-13T21:08:11.362Z,73.62
2018-08-13T21:10:39.417Z,73.78
2018-08-13T21:13:07.961Z,74.04
2018-08-13T21:15:36.001Z,73.84
2018-08-13T21:18:04.264Z,73.85
2018-08-13T21:20:32.312Z,74.54
2018-08-13T21:23:00.550Z,74.41
2018-08-13T21:25:28.608Z,73.59
2018-08-13T21:27:56.633Z,74.31
2018-08-13T21:30:24.779Z,74.26
2018-08-13T21:32:53.159Z,74.33
2018-08-13T21:35:23.083Z,74.37
2018-08-13T21:37:51.729Z,73.37
2018-08-13T21:40:20.132Z,73.71
2018-08-13T21:42:48.878Z,73.11
2018-08-13T21:45:16.876Z,73.53
2018-08-13T21:47:44.916Z,72.82
2018-08-13T21:50:18.340Z,73.58
2018-08-13T21:52:47.104Z,73.82
2018-08-13T21:55:15.295Z,73.35
2018-08-13T21:57:43.364Z,73.69
2018-08-13T22:00:26.579Z,74.75
2018-08-13T22:02:55.450Z,73.90
2018-08-13T22:05:23.661Z,73.14
2018-08-13T22:07:51.691Z,73.94
2018-08-13T22:10:19.727Z,73.83
2018-08-13T22:12:48.030Z,73.97
2018-08-13T22:15:21.387Z,74.30
2018-08-13T22:17:49.414Z,74.35
2018-08-13T22:20:17.437Z,74.74
2018-08-13T22:22:45.556Z,74.80
2018-08-13T22:25:16.892Z,73.82
2018-08-13T22:27:45.001Z,74.88
2018-08-13T22:30:13.025Z,74.18
2018-08-13T22:32:41.225Z,75.04
2018-08-13T22:35:09.837Z,75.44
2018-08-13T22:37:39.603Z,74.98
2018-08-13T22:40:09.746Z,75.30
2018-08-13T22:42:37.776Z,75.23
2018-08-13T22:45:07.847Z,75.28
2018-08-13T22:47:36.020Z,75.38
2018-08-13T22:50:05.582Z,76.17
2018-08-13T22:52:33.665Z,76.04
2018-08-13T22:55:01.702Z,76.54
2018-08-13T22:57:29.969Z,76.64
2018-08-13T22:59:57.996Z,76.49
2018-08-13T23:02:26.066Z,76.88
2018-08-13T23:04:54.112Z,76.93
2018-08-13T23:07:22.175Z,76.94
2018-08-13T23:09:50.198Z,76.32
2018-08-13T23:12:18.232Z,77.28
2018-08-13T23:14:46.308Z,76.65
2018-08-13T23:17:14.308Z,76.37
2018-08-13T23:19:42.344Z,76.91
2018-08-13T23:22:13.671Z,76.67
2018-08-13T23:24:41.715Z,77.34
2018-08-13T23:27:09.754Z,77.60
2018-08-13T23:29:37.773Z,76.73
2018-08-13T23:32:05.968Z,76.75
2018-08-13T23:34:33.996Z,77.53
2018-08-13T23:37:02.031Z,77.17
2018-08-13T23:39:30.055Z,77.48
2018-08-13T23:41:58.084Z,76.71
2018-08-13T23:44:26.120Z,76.95
2018-08-13T23:46:54.334Z,77.06
2018-08-13T23:49:22.365Z,77.84
2018-08-13T23:51:50.400Z,77.55
2018-08-13T23:54:18.428Z,77.10
2018-08-13T23:56:46.452Z,77.49
2018-08-13T23:59:14.484Z,77.80
